createdAt,value
2023-02-02T00:04:46.307Z,7.70
2023-02-02T00:09:54.542Z,7.63
2023-02-02T00:14:56.947Z,8.67
2023-02-02T00:19:59.151Z,6.87
2023-02-02T00:25:01.428Z,5.97
2023-02-02T00:30:04.009Z,6.77
2023-02-02T00:35:10.660Z,6.33
2023-02-02T00:40:13.157Z,5.70
2023-02-02T00:45:18.418Z,6.43
2023-02-02T00:50:21.589Z,5.83
2023-02-02T00:55:24.409Z,6.53
2023-02-02T01:00:27.835Z,5.50
2023-02-02T01:05:31.569Z,6.67
2023-02-02T01:10:34.440Z,6.40
2023-02-02T01:15:37.623Z,6.37
2023-02-02T01:20:40.020Z,7.47
2023-02-02T01:25:42.288Z,5.43
2023-02-02T01:30:45.299Z,6.03
2023-02-02T01:35:48.839Z,6.67
2023-02-02T01:40:56.259Z,6.50
2023-02-02T01:45:59.481Z,6.13
2023-02-02T01:51:05.356Z,7.87
2023-02-02T01:56:12.181Z,7.63
2023-02-02T02:01:15.406Z,6.73
2023-02-02T02:06:19.852Z,7.10
2023-02-02T02:11:23.395Z,7.23
2023-02-02T02:16:44.226Z,6.93
2023-02-02T02:22:20.918Z,7.63
2023-02-02T02:28:01.058Z,7.57
2023-02-02T02:33:10.731Z,7.97
2023-02-02T02:38:25.767Z,6.88
2023-02-02T02:43:31.899Z,7.20
2023-02-02T02:48:34.558Z,7.23
2023-02-02T02:53:37.874Z,7.67
2023-02-02T02:58:55.640Z,6.80
2023-02-02T03:04:19.017Z,8.07
2023-02-02T03:09:26.613Z,6.30
2023-02-02T03:14:29.001Z,6.33
2023-02-02T03:19:31.649Z,6.23
2023-02-02T03:24:34.538Z,7.17
2023-02-02T03:29:37.329Z,7.03
2023-02-02T03:34:39.857Z,7.80
2023-02-02T03:39:42.201Z,7.83
2023-02-02T03:44:44.473Z,8.30
2023-02-02T03:49:46.800Z,7.73
2023-02-02T03:54:49.184Z,7.63
2023-02-02T03:59:51.547Z,6.80
2023-02-02T04:04:53.957Z,7.20
2023-02-02T04:09:56.243Z,7.83
2023-02-02T04:14:58.618Z,7.87
2023-02-02T04:20:01.200Z,6.50
2023-02-02T04:25:05.752Z,5.93
2023-02-02T04:30:09.264Z,6.47
2023-02-02T04:35:11.802Z,7.03
2023-02-02T04:40:15.046Z,6.60
2023-02-02T04:45:17.571Z,7.30
2023-02-02T04:50:19.832Z,7.10
2023-02-02T04:55:22.587Z,6.43
2023-02-02T05:00:25.127Z,7.60
2023-02-02T05:05:27.545Z,7.57
2023-02-02T05:10:29.829Z,8.17
2023-02-02T05:15:32.187Z,7.23
2023-02-02T05:20:34.596Z,6.27
2023-02-02T05:25:37.111Z,8.50
2023-02-02T05:30:40.743Z,7.00
2023-02-02T05:35:48.695Z,6.70
2023-02-02T05:40:50.995Z,7.37
2023-02-02T05:45:53.751Z,7.23
2023-02-02T05:51:03.967Z,7.27
2023-02-02T05:56:06.595Z,7.80
2023-02-02T06:01:10.188Z,7.67
2023-02-02T06:06:13.095Z,8.50
2023-02-02T06:11:17.268Z,9.30
2023-02-02T06:16:19.560Z,8.50
2023-02-02T06:21:24.784Z,7.73
2023-02-02T06:26:27.359Z,8.27
2023-02-02T06:31:29.715Z,9.70
2023-02-02T06:36:32.107Z,7.53
2023-02-02T06:41:35.114Z,7.63
2023-02-02T06:46:37.398Z,7.30
2023-02-02T06:51:39.729Z,8.50
2023-02-02T06:56:41.950Z,9.13
2023-02-02T07:01:44.206Z,9.27
2023-02-02T07:06:46.544Z,10.63
2023-02-02T07:11:48.738Z,11.07
2023-02-02T07:16:50.919Z,10.33
2023-02-02T07:21:53.113Z,9.40
2023-02-02T07:26:55.432Z,8.97
2023-02-02T07:31:57.832Z,9.70
2023-02-02T07:37:00.053Z,7.63
2023-02-02T07:42:03.100Z,7.63
2023-02-02T07:47:11.191Z,8.23
2023-02-02T07:52:13.434Z,7.17
2023-02-02T07:57:17.871Z,8.00
2023-02-02T08:02:20.192Z,8.50
2023-02-02T08:07:24.842Z,7.13
2023-02-02T08:12:27.271Z,7.57
2023-02-02T08:17:29.476Z,8.33
2023-02-02T08:22:31.768Z,8.07
2023-02-02T08:27:35.247Z,8.20
2023-02-02T08:32:38.613Z,7.90
2023-02-02T08:37:41.158Z,8.53
2023-02-02T08:42:43.820Z,9.10
2023-02-02T08:47:46.032Z,7.67
2023-02-02T08:52:48.706Z,8.20
2023-02-02T08:57:50.971Z,7.50
2023-02-02T09:02:53.244Z,7.43
2023-02-02T09:07:55.559Z,8.00
2023-02-02T09:12:57.924Z,7.83
2023-02-02T09:18:00.340Z,9.27
2023-02-02T09:23:02.898Z,7.17
2023-02-02T09:28:05.496Z,8.40
2023-02-02T09:33:07.788Z,9.20
2023-02-02T09:38:10.114Z,8.17
2023-02-02T09:43:27.759Z,8.33
2023-02-02T09:48:46.751Z,9.57
2023-02-02T09:54:05.762Z,7.90
2023-02-02T09:59:20.409Z,7.63
2023-02-02T10:04:30.306Z,9.00
2023-02-02T10:09:54.575Z,8.55
2023-02-02T10:14:59.992Z,8.13
2023-02-02T10:20:23.861Z,7.30
2023-02-02T10:25:29.964Z,7.27
2023-02-02T10:30:51.342Z,8.70
2023-02-02T10:36:06.192Z,7.67
2023-02-02T10:41:29.109Z,8.57
2023-02-02T10:46:40.345Z,9.37
2023-02-02T10:51:48.645Z,9.40
2023-02-02T10:56:54.179Z,8.27
2023-02-02T11:01:56.531Z,8.70
2023-02-02T11:07:01.402Z,7.97
2023-02-02T11:12:19.586Z,7.80
2023-02-02T11:17:24.376Z,8.17
2023-02-02T11:22:34.359Z,7.40
2023-02-02T11:27:41.475Z,8.00
2023-02-02T11:32:48.123Z,7.57
2023-02-02T11:38:09.983Z,7.90
2023-02-02T11:43:44.476Z,7.77
2023-02-02T11:48:59.959Z,7.43
2023-02-02T11:54:06.273Z,7.57
2023-02-02T11:59:28.643Z,7.70
2023-02-02T12:04:32.503Z,6.63
2023-02-02T12:09:34.842Z,7.27
2023-02-02T12:15:03.678Z,7.60
2023-02-02T12:20:28.460Z,6.53
2023-02-02T12:25:39.968Z,6.77
2023-02-02T12:31:04.568Z,7.53
2023-02-02T12:36:26.441Z,7.00
2023-02-02T12:41:43.893Z,7.13
2023-02-02T12:47:06.405Z,7.23
2023-02-02T12:52:46.353Z,7.57
2023-02-02T12:58:25.093Z,7.65
2023-02-02T13:03:45.551Z,7.53
2023-02-02T13:09:15.392Z,7.90
2023-02-02T13:14:25.959Z,6.85
2023-02-02T13:19:41.531Z,6.90
2023-02-02T13:24:47.310Z,8.83
2023-02-02T13:30:14.432Z,8.30
2023-02-02T13:35:24.882Z,7.97
2023-02-02T13:40:49.510Z,7.33
2023-02-02T13:46:12.261Z,6.77
2023-02-02T13:51:50.016Z,8.97
2023-02-02T13:57:25.190Z,9.43
2023-02-02T14:02:42.103Z,8.63
2023-02-02T14:07:45.996Z,8.47
2023-02-02T14:12:48.562Z,8.67
2023-02-02T14:17:53.752Z,9.13
2023-02-02T14:22:56.143Z,8.63
2023-02-02T14:28:13.048Z,9.17
2023-02-02T14:33:29.153Z,9.90
2023-02-02T14:39:04.691Z,8.77
2023-02-02T14:44:07.012Z,8.67
2023-02-02T14:49:16.153Z,8.77
2023-02-02T14:54:24.563Z,8.55
2023-02-02T14:59:38.998Z,10.97
2023-02-02T15:04:41.548Z,9.43
2023-02-02T15:09:44.462Z,11.50
2023-02-02T15:15:11.954Z,10.30
2023-02-02T15:20:23.282Z,8.80
2023-02-02T15:25:41.557Z,10.27
2023-02-02T15:30:46.156Z,9.20
2023-02-02T15:35:48.958Z,10.30
2023-02-02T15:40:51.269Z,11.23
2023-02-02T15:45:54.835Z,11.57
2023-02-02T15:51:29.697Z,11.47
2023-02-02T15:56:32.167Z,10.70
2023-02-02T16:01:45.620Z,11.13
2023-02-02T16:06:48.576Z,11.17
2023-02-02T16:11:51.222Z,12.83
2023-02-02T16:16:53.466Z,10.67
2023-02-02T16:22:09.748Z,11.43
2023-02-02T16:27:19.691Z,10.77
2023-02-02T16:32:29.187Z,10.57
2023-02-02T16:37:33.640Z,11.48
2023-02-02T16:42:35.817Z,10.70
2023-02-02T16:47:38.847Z,10.27
2023-02-02T16:52:50.249Z,12.03
2023-02-02T16:57:52.666Z,10.80
2023-02-02T17:03:09.675Z,10.30
2023-02-02T17:08:12.197Z,10.37
2023-02-02T17:13:33.729Z,10.43
2023-02-02T17:18:35.996Z,9.77
2023-02-02T17:23:39.602Z,9.80
2023-02-02T17:28:43.758Z,11.03
2023-02-02T17:33:46.179Z,9.23
2023-02-02T17:38:48.421Z,8.63
2023-02-02T17:43:50.764Z,10.63
2023-02-02T17:48:52.981Z,11.23
2023-02-02T17:53:58.003Z,10.37
2023-02-02T17:59:00.232Z,9.13
2023-02-02T18:04:02.717Z,10.20
2023-02-02T18:09:05.234Z,8.10
2023-02-02T18:14:07.599Z,9.07
2023-02-02T18:19:10.558Z,7.93
2023-02-02T18:24:15.476Z,9.23
2023-02-02T18:29:18.011Z,9.47
2023-02-02T18:34:20.417Z,8.83
2023-02-02T18:39:22.690Z,9.60
2023-02-02T18:44:25.191Z,8.53
2023-02-02T18:49:27.483Z,9.50
2023-02-02T18:54:30.198Z,8.93
2023-02-02T18:59:34.573Z,8.37
2023-02-02T19:04:36.823Z,8.77
2023-02-02T19:09:39.217Z,9.43
2023-02-02T19:14:42.716Z,9.13
2023-02-02T19:19:45.025Z,9.80
2023-02-02T19:24:47.665Z,9.07
2023-02-02T19:29:52.251Z,9.77
2023-02-02T19:34:57.506Z,10.90
2023-02-02T19:40:19.298Z,10.40
2023-02-02T19:45:28.711Z,9.73
2023-02-02T19:50:39.273Z,10.15
2023-02-02T19:55:45.598Z,10.23
2023-02-02T20:00:50.347Z,11.23
2023-02-02T20:05:53.705Z,10.03
2023-02-02T20:10:58.931Z,9.63
2023-02-02T20:16:04.295Z,10.90
2023-02-02T20:21:10.711Z,10.53
2023-02-02T20:26:28.462Z,11.13
2023-02-02T20:31:38.618Z,10.27
2023-02-02T20:36:41.178Z,12.03
2023-02-02T20:42:02.542Z,11.20
2023-02-02T20:47:05.033Z,11.27
2023-02-02T20:52:10.971Z,10.47
2023-02-02T20:57:13.212Z,9.57
2023-02-02T21:02:19.568Z,11.00
2023-02-02T21:07:22.252Z,11.83
2023-02-02T21:12:25.808Z,11.60
2023-02-02T21:17:28.057Z,11.23
2023-02-02T21:22:30.398Z,11.13
2023-02-02T21:27:32.750Z,11.97
2023-02-02T21:32:35.090Z,10.80
2023-02-02T21:37:37.881Z,10.77
2023-02-02T21:42:47.388Z,9.87
2023-02-02T21:47:58.059Z,11.68
2023-02-02T21:53:24.686Z,10.83
2023-02-02T21:58:34.841Z,11.10
2023-02-02T22:03:46.675Z,12.57
2023-02-02T22:08:49.719Z,10.87
2023-02-02T22:13:53.299Z,12.80
2023-02-02T22:19:12.317Z,10.50
2023-02-02T22:24:15.458Z,12.13
2023-02-02T22:29:21.431Z,10.27
2023-02-02T22:34:23.722Z,11.13
2023-02-02T22:39:25.955Z,11.40
2023-02-02T22:44:28.234Z,11.33
2023-02-02T22:49:30.438Z,12.17
2023-02-02T22:54:32.773Z,10.57
2023-02-02T22:59:34.929Z,10.63
2023-02-02T23:04:37.204Z,10.63
2023-02-02T23:09:39.425Z,11.70
2023-02-02T23:14:41.701Z,11.70
2023-02-02T23:19:43.981Z,11.53
2023-02-02T23:24:46.476Z,11.17
2023-02-02T23:29:48.968Z,11.77
2023-02-02T23:34:51.337Z,9.97
2023-02-02T23:39:53.611Z,11.90
2023-02-02T23:44:55.845Z,9.97
2023-02-02T23:49:58.244Z,12.00
2023-02-02T23:55:01.697Z,11.50
